sensor_id;sensor_type;location;lat;lon;timestamp;P1;durP1;ratioP1;P2;durP2;ratioP2
24617;SDS011;12762;51.730;5.356;2023-04-08T00:01:28;34.53;;;17.63;;
24617;SDS011;12762;51.730;5.356;2023-04-08T00:03:59;35.57;;;17.30;;
24617;SDS011;12762;51.730;5.356;2023-04-08T00:06:26;37.67;;;17.23;;
24617;SDS011;12762;51.730;5.356;2023-04-08T00:08:53;37.20;;;17.67;;
24617;SDS011;12762;51.730;5.356;2023-04-08T00:11:29;34.47;;;17.50;;
24617;SDS011;12762;51.730;5.356;2023-04-08T00:13:56;37.83;;;18.07;;
24617;SDS011;12762;51.730;5.356;2023-04-08T00:16:22;31.83;;;17.80;;
24617;SDS011;12762;51.730;5.356;2023-04-08T00:18:49;39.87;;;19.30;;
24617;SDS011;12762;51.730;5.356;2023-04-08T00:21:17;35.13;;;18.13;;
24617;SDS011;12762;51.730;5.356;2023-04-08T00:23:46;38.93;;;17.97;;
24617;SDS011;12762;51.730;5.356;2023-04-08T00:26:13;39.90;;;19.00;;
24617;SDS011;12762;51.730;5.356;2023-04-08T00:28:51;35.77;;;18.37;;
24617;SDS011;12762;51.730;5.356;2023-04-08T00:31:18;32.43;;;18.60;;
24617;SDS011;12762;51.730;5.356;2023-04-08T00:33:46;34.10;;;18.43;;
24617;SDS011;12762;51.730;5.356;2023-04-08T00:36:15;39.57;;;19.77;;
24617;SDS011;12762;51.730;5.356;2023-04-08T00:38:42;34.40;;;18.57;;
24617;SDS011;12762;51.730;5.356;2023-04-08T00:41:12;36.77;;;19.17;;
24617;SDS011;12762;51.730;5.356;2023-04-08T00:43:39;36.73;;;18.53;;
24617;SDS011;12762;51.730;5.356;2023-04-08T00:46:06;39.57;;;19.60;;
24617;SDS011;12762;51.730;5.356;2023-04-08T00:48:33;33.60;;;18.57;;
24617;SDS011;12762;51.730;5.356;2023-04-08T00:50:59;38.77;;;19.53;;
24617;SDS011;12762;51.730;5.356;2023-04-08T00:53:27;35.07;;;18.93;;
24617;SDS011;12762;51.730;5.356;2023-04-08T00:55:56;39.43;;;19.07;;
24617;SDS011;12762;51.730;5.356;2023-04-08T00:58:25;36.73;;;18.07;;
24617;SDS011;12762;51.730;5.356;2023-04-08T01:04:01;38.13;;;19.53;;
24617;SDS011;12762;51.730;5.356;2023-04-08T01:06:46;40.60;;;20.23;;
24617;SDS011;12762;51.730;5.356;2023-04-08T01:09:20;35.13;;;18.93;;
24617;SDS011;12762;51.730;5.356;2023-04-08T01:11:50;37.50;;;18.57;;
24617;SDS011;12762;51.730;5.356;2023-04-08T01:14:19;37.73;;;19.20;;
24617;SDS011;12762;51.730;5.356;2023-04-08T01:16:49;42.07;;;20.40;;
24617;SDS011;12762;51.730;5.356;2023-04-08T01:19:30;35.93;;;19.80;;
24617;SDS011;12762;51.730;5.356;2023-04-08T01:22:14;43.63;;;21.73;;
24617;SDS011;12762;51.730;5.356;2023-04-08T01:24:44;41.87;;;20.50;;
24617;SDS011;12762;51.730;5.356;2023-04-08T01:27:14;40.23;;;21.27;;
24617;SDS011;12762;51.730;5.356;2023-04-08T01:29:42;40.93;;;20.20;;
24617;SDS011;12762;51.730;5.356;2023-04-08T01:32:10;40.53;;;20.07;;
24617;SDS011;12762;51.730;5.356;2023-04-08T01:34:38;38.53;;;19.50;;
24617;SDS011;12762;51.730;5.356;2023-04-08T01:37:06;45.20;;;21.63;;
24617;SDS011;12762;51.730;5.356;2023-04-08T01:39:34;47.00;;;21.73;;
24617;SDS011;12762;51.730;5.356;2023-04-08T01:42:02;47.23;;;22.30;;
24617;SDS011;12762;51.730;5.356;2023-04-08T01:44:29;45.57;;;21.30;;
24617;SDS011;12762;51.730;5.356;2023-04-08T01:46:58;53.73;;;22.63;;
24617;SDS011;12762;51.730;5.356;2023-04-08T01:49:29;45.27;;;20.43;;
24617;SDS011;12762;51.730;5.356;2023-04-08T01:51:58;46.83;;;21.30;;
24617;SDS011;12762;51.730;5.356;2023-04-08T01:54:26;45.10;;;22.13;;
24617;SDS011;12762;51.730;5.356;2023-04-08T01:56:56;43.07;;;21.63;;
24617;SDS011;12762;51.730;5.356;2023-04-08T01:59:26;44.30;;;21.20;;
24617;SDS011;12762;51.730;5.356;2023-04-08T02:01:54;42.80;;;21.30;;
24617;SDS011;12762;51.730;5.356;2023-04-08T02:04:22;41.43;;;20.80;;
24617;SDS011;12762;51.730;5.356;2023-04-08T02:06:49;45.37;;;21.67;;
24617;SDS011;12762;51.730;5.356;2023-04-08T02:09:16;44.40;;;20.47;;
24617;SDS011;12762;51.730;5.356;2023-04-08T02:11:43;45.83;;;21.77;;
24617;SDS011;12762;51.730;5.356;2023-04-08T02:14:12;46.97;;;20.77;;
24617;SDS011;12762;51.730;5.356;2023-04-08T02:16:39;45.20;;;21.23;;
24617;SDS011;12762;51.730;5.356;2023-04-08T02:19:14;44.57;;;20.53;;
24617;SDS011;12762;51.730;5.356;2023-04-08T02:21:48;40.20;;;20.53;;
24617;SDS011;12762;51.730;5.356;2023-04-08T02:24:23;45.13;;;20.70;;
24617;SDS011;12762;51.730;5.356;2023-04-08T02:26:52;46.77;;;20.43;;
24617;SDS011;12762;51.730;5.356;2023-04-08T02:29:21;48.20;;;21.53;;
24617;SDS011;12762;51.730;5.356;2023-04-08T02:31:49;45.07;;;21.37;;
24617;SDS011;12762;51.730;5.356;2023-04-08T02:34:18;45.10;;;20.80;;
24617;SDS011;12762;51.730;5.356;2023-04-08T02:36:47;48.30;;;21.90;;
24617;SDS011;12762;51.730;5.356;2023-04-08T02:39:16;44.33;;;20.37;;
24617;SDS011;12762;51.730;5.356;2023-04-08T02:41:43;43.17;;;21.33;;
24617;SDS011;12762;51.730;5.356;2023-04-08T02:44:09;47.40;;;21.87;;
24617;SDS011;12762;51.730;5.356;2023-04-08T02:46:36;44.37;;;21.57;;
24617;SDS011;12762;51.730;5.356;2023-04-08T02:49:03;43.37;;;20.37;;
24617;SDS011;12762;51.730;5.356;2023-04-08T02:51:30;49.70;;;21.97;;
24617;SDS011;12762;51.730;5.356;2023-04-08T02:53:58;46.23;;;21.03;;
24617;SDS011;12762;51.730;5.356;2023-04-08T02:56:25;43.60;;;19.30;;
24617;SDS011;12762;51.730;5.356;2023-04-08T02:58:51;50.50;;;22.43;;
24617;SDS011;12762;51.730;5.356;2023-04-08T03:01:18;43.67;;;20.73;;
24617;SDS011;12762;51.730;5.356;2023-04-08T03:03:45;44.57;;;21.17;;
24617;SDS011;12762;51.730;5.356;2023-04-08T03:06:12;46.70;;;21.83;;
24617;SDS011;12762;51.730;5.356;2023-04-08T03:08:42;48.53;;;21.77;;
24617;SDS011;12762;51.730;5.356;2023-04-08T03:11:09;41.70;;;20.37;;
24617;SDS011;12762;51.730;5.356;2023-04-08T03:13:36;45.93;;;22.07;;
24617;SDS011;12762;51.730;5.356;2023-04-08T03:16:03;41.63;;;19.90;;
24617;SDS011;12762;51.730;5.356;2023-04-08T03:18:30;44.33;;;21.20;;
24617;SDS011;12762;51.730;5.356;2023-04-08T03:20:57;43.97;;;19.73;;
24617;SDS011;12762;51.730;5.356;2023-04-08T03:23:23;46.87;;;20.40;;
24617;SDS011;12762;51.730;5.356;2023-04-08T03:25:50;42.33;;;21.20;;
24617;SDS011;12762;51.730;5.356;2023-04-08T03:28:17;43.87;;;21.00;;
24617;SDS011;12762;51.730;5.356;2023-04-08T03:30:44;40.23;;;18.87;;
24617;SDS011;12762;51.730;5.356;2023-04-08T03:33:14;40.63;;;19.63;;
24617;SDS011;12762;51.730;5.356;2023-04-08T03:35:40;43.77;;;20.07;;
24617;SDS011;12762;51.730;5.356;2023-04-08T03:38:07;46.60;;;21.80;;
24617;SDS011;12762;51.730;5.356;2023-04-08T03:40:34;43.80;;;20.43;;
24617;SDS011;12762;51.730;5.356;2023-04-08T03:43:04;44.20;;;19.80;;
24617;SDS011;12762;51.730;5.356;2023-04-08T03:45:33;39.63;;;19.83;;
24617;SDS011;12762;51.730;5.356;2023-04-08T03:48:03;45.70;;;21.13;;
24617;SDS011;12762;51.730;5.356;2023-04-08T03:50:30;48.60;;;20.83;;
24617;SDS011;12762;51.730;5.356;2023-04-08T03:52:57;43.70;;;20.67;;
24617;SDS011;12762;51.730;5.356;2023-04-08T03:55:24;45.10;;;21.23;;
24617;SDS011;12762;51.730;5.356;2023-04-08T03:57:53;45.33;;;20.63;;
24617;SDS011;12762;51.730;5.356;2023-04-08T04:00:20;42.33;;;19.57;;
24617;SDS011;12762;51.730;5.356;2023-04-08T04:02:48;42.90;;;20.60;;
24617;SDS011;12762;51.730;5.356;2023-04-08T04:05:15;39.17;;;19.67;;
24617;SDS011;12762;51.730;5.356;2023-04-08T04:07:42;39.23;;;19.50;;
24617;SDS011;12762;51.730;5.356;2023-04-08T04:10:08;42.53;;;20.43;;
24617;SDS011;12762;51.730;5.356;2023-04-08T04:12:36;42.67;;;20.90;;
24617;SDS011;12762;51.730;5.356;2023-04-08T04:15:03;43.13;;;18.97;;
24617;SDS011;12762;51.730;5.356;2023-04-08T04:17:30;41.13;;;19.07;;
24617;SDS011;12762;51.730;5.356;2023-04-08T04:19:57;41.00;;;18.97;;
24617;SDS011;12762;51.730;5.356;2023-04-08T04:22:23;40.30;;;19.63;;
24617;SDS011;12762;51.730;5.356;2023-04-08T04:24:50;43.00;;;19.40;;
24617;SDS011;12762;51.730;5.356;2023-04-08T04:27:17;39.83;;;19.07;;
24617;SDS011;12762;51.730;5.356;2023-04-08T04:29:43;44.17;;;18.87;;
24617;SDS011;12762;51.730;5.356;2023-04-08T04:32:10;38.53;;;18.60;;
24617;SDS011;12762;51.730;5.356;2023-04-08T04:34:37;42.10;;;19.20;;
24617;SDS011;12762;51.730;5.356;2023-04-08T04:37:04;44.50;;;20.43;;
24617;SDS011;12762;51.730;5.356;2023-04-08T04:39:31;39.57;;;19.97;;
24617;SDS011;12762;51.730;5.356;2023-04-08T04:41:58;39.97;;;20.23;;
24617;SDS011;12762;51.730;5.356;2023-04-08T04:44:26;41.87;;;20.77;;
24617;SDS011;12762;51.730;5.356;2023-04-08T04:46:53;43.73;;;19.97;;
24617;SDS011;12762;51.730;5.356;2023-04-08T04:49:20;46.10;;;20.70;;
24617;SDS011;12762;51.730;5.356;2023-04-08T04:51:47;52.67;;;22.13;;
24617;SDS011;12762;51.730;5.356;2023-04-08T04:54:14;45.07;;;20.43;;
24617;SDS011;12762;51.730;5.356;2023-04-08T04:56:41;72.23;;;22.17;;
24617;SDS011;12762;51.730;5.356;2023-04-08T04:59:08;58.90;;;20.17;;
24617;SDS011;12762;51.730;5.356;2023-04-08T05:01:35;78.90;;;19.33;;
24617;SDS011;12762;51.730;5.356;2023-04-08T05:04:02;73.10;;;21.63;;
24617;SDS011;12762;51.730;5.356;2023-04-08T05:06:28;100.37;;;20.97;;
24617;SDS011;12762;51.730;5.356;2023-04-08T05:08:56;78.90;;;18.80;;
24617;SDS011;12762;51.730;5.356;2023-04-08T05:11:22;112.50;;;18.47;;
24617;SDS011;12762;51.730;5.356;2023-04-08T05:13:49;50.47;;;17.63;;
24617;SDS011;12762;51.730;5.356;2023-04-08T05:16:16;55.50;;;17.70;;
24617;SDS011;12762;51.730;5.356;2023-04-08T05:18:43;77.73;;;19.17;;
24617;SDS011;12762;51.730;5.356;2023-04-08T05:21:10;57.37;;;17.60;;
24617;SDS011;12762;51.730;5.356;2023-04-08T05:23:37;71.57;;;18.37;;
24617;SDS011;12762;51.730;5.356;2023-04-08T05:26:05;50.87;;;17.73;;
24617;SDS011;12762;51.730;5.356;2023-04-08T05:28:34;63.57;;;16.67;;
24617;SDS011;12762;51.730;5.356;2023-04-08T05:31:01;70.77;;;18.50;;
24617;SDS011;12762;51.730;5.356;2023-04-08T05:33:31;63.20;;;17.37;;
24617;SDS011;12762;51.730;5.356;2023-04-08T05:35:57;111.27;;;18.97;;
24617;SDS011;12762;51.730;5.356;2023-04-08T05:38:24;105.63;;;19.63;;
24617;SDS011;12762;51.730;5.356;2023-04-08T05:40:51;69.90;;;19.20;;
24617;SDS011;12762;51.730;5.356;2023-04-08T05:43:18;60.43;;;16.87;;
24617;SDS011;12762;51.730;5.356;2023-04-08T05:45:45;100.70;;;19.40;;
24617;SDS011;12762;51.730;5.356;2023-04-08T05:48:15;66.67;;;17.40;;
24617;SDS011;12762;51.730;5.356;2023-04-08T05:50:41;38.20;;;15.93;;
24617;SDS011;12762;51.730;5.356;2023-04-08T05:53:08;59.07;;;17.03;;
24617;SDS011;12762;51.730;5.356;2023-04-08T05:55:35;71.10;;;16.63;;
24617;SDS011;12762;51.730;5.356;2023-04-08T05:58:02;56.33;;;16.60;;
24617;SDS011;12762;51.730;5.356;2023-04-08T06:00:29;68.30;;;17.23;;
24617;SDS011;12762;51.730;5.356;2023-04-08T06:02:59;57.83;;;16.27;;
24617;SDS011;12762;51.730;5.356;2023-04-08T06:05:26;49.50;;;15.17;;
24617;SDS011;12762;51.730;5.356;2023-04-08T06:07:53;59.23;;;15.47;;
24617;SDS011;12762;51.730;5.356;2023-04-08T06:10:20;44.47;;;15.57;;
24617;SDS011;12762;51.730;5.356;2023-04-08T06:12:47;51.27;;;15.73;;
24617;SDS011;12762;51.730;5.356;2023-04-08T06:15:16;56.27;;;16.63;;
24617;SDS011;12762;51.730;5.356;2023-04-08T06:17:43;50.73;;;15.67;;
24617;SDS011;12762;51.730;5.356;2023-04-08T06:20:12;58.87;;;15.27;;
24617;SDS011;12762;51.730;5.356;2023-04-08T06:22:42;41.93;;;13.63;;
24617;SDS011;12762;51.730;5.356;2023-04-08T06:25:09;47.63;;;13.77;;
24617;SDS011;12762;51.730;5.356;2023-04-08T06:27:38;41.73;;;12.73;;
24617;SDS011;12762;51.730;5.356;2023-04-08T06:30:05;47.30;;;13.60;;
24617;SDS011;12762;51.730;5.356;2023-04-08T06:32:33;49.43;;;14.30;;
24617;SDS011;12762;51.730;5.356;2023-04-08T06:34:59;47.77;;;15.70;;
24617;SDS011;12762;51.730;5.356;2023-04-08T06:37:26;61.43;;;13.70;;
24617;SDS011;12762;51.730;5.356;2023-04-08T06:39:53;40.10;;;12.53;;
24617;SDS011;12762;51.730;5.356;2023-04-08T06:42:20;37.50;;;12.97;;
24617;SDS011;12762;51.730;5.356;2023-04-08T06:44:48;34.63;;;13.83;;
24617;SDS011;12762;51.730;5.356;2023-04-08T06:47:15;31.60;;;13.63;;
24617;SDS011;12762;51.730;5.356;2023-04-08T06:49:42;28.10;;;12.90;;
24617;SDS011;12762;51.730;5.356;2023-04-08T06:52:09;27.27;;;13.27;;
24617;SDS011;12762;51.730;5.356;2023-04-08T06:54:38;32.77;;;13.17;;
24617;SDS011;12762;51.730;5.356;2023-04-08T06:57:05;31.87;;;12.63;;
24617;SDS011;12762;51.730;5.356;2023-04-08T06:59:32;33.23;;;13.50;;
24617;SDS011;12762;51.730;5.356;2023-04-08T07:01:59;35.43;;;12.43;;
24617;SDS011;12762;51.730;5.356;2023-04-08T07:04:26;38.40;;;13.20;;
24617;SDS011;12762;51.730;5.356;2023-04-08T07:06:53;40.80;;;12.63;;
24617;SDS011;12762;51.730;5.356;2023-04-08T07:09:20;74.20;;;12.80;;
24617;SDS011;12762;51.730;5.356;2023-04-08T07:11:47;37.03;;;12.17;;
24617;SDS011;12762;51.730;5.356;2023-04-08T07:14:14;33.67;;;12.83;;
24617;SDS011;12762;51.730;5.356;2023-04-08T07:16:41;65.90;;;13.53;;
24617;SDS011;12762;51.730;5.356;2023-04-08T07:19:08;30.37;;;13.13;;
24617;SDS011;12762;51.730;5.356;2023-04-08T07:21:37;31.47;;;13.00;;
24617;SDS011;12762;51.730;5.356;2023-04-08T07:24:04;32.80;;;12.77;;
24617;SDS011;12762;51.730;5.356;2023-04-08T07:26:31;50.70;;;12.17;;
24617;SDS011;12762;51.730;5.356;2023-04-08T07:29:00;38.67;;;12.43;;
24617;SDS011;12762;51.730;5.356;2023-04-08T07:31:27;33.77;;;12.40;;
24617;SDS011;12762;51.730;5.356;2023-04-08T07:33:54;35.70;;;12.27;;
24617;SDS011;12762;51.730;5.356;2023-04-08T07:36:21;29.80;;;12.53;;
24617;SDS011;12762;51.730;5.356;2023-04-08T07:38:47;28.10;;;12.10;;
24617;SDS011;12762;51.730;5.356;2023-04-08T07:41:17;31.07;;;13.43;;
24617;SDS011;12762;51.730;5.356;2023-04-08T07:43:44;38.57;;;10.80;;
24617;SDS011;12762;51.730;5.356;2023-04-08T07:46:14;29.90;;;12.47;;
24617;SDS011;12762;51.730;5.356;2023-04-08T07:48:41;37.03;;;12.60;;
24617;SDS011;12762;51.730;5.356;2023-04-08T07:51:08;32.70;;;12.53;;
24617;SDS011;12762;51.730;5.356;2023-04-08T07:53:37;24.40;;;13.13;;
24617;SDS011;12762;51.730;5.356;2023-04-08T07:56:14;37.00;;;12.93;;
24617;SDS011;12762;51.730;5.356;2023-04-08T07:58:43;36.90;;;12.97;;
24617;SDS011;12762;51.730;5.356;2023-04-08T08:01:15;22.97;;;11.97;;
24617;SDS011;12762;51.730;5.356;2023-04-08T08:03:44;19.67;;;11.13;;
24617;SDS011;12762;51.730;5.356;2023-04-08T08:06:13;25.87;;;12.47;;
24617;SDS011;12762;51.730;5.356;2023-04-08T08:08:40;22.17;;;12.37;;
24617;SDS011;12762;51.730;5.356;2023-04-08T08:11:07;21.13;;;12.93;;
24617;SDS011;12762;51.730;5.356;2023-04-08T08:13:34;22.27;;;12.83;;
24617;SDS011;12762;51.730;5.356;2023-04-08T08:16:03;24.97;;;13.80;;
24617;SDS011;12762;51.730;5.356;2023-04-08T08:18:34;22.27;;;12.50;;
24617;SDS011;12762;51.730;5.356;2023-04-08T08:21:02;24.03;;;13.50;;
24617;SDS011;12762;51.730;5.356;2023-04-08T08:23:29;23.00;;;14.80;;
24617;SDS011;12762;51.730;5.356;2023-04-08T08:25:59;22.70;;;13.70;;
24617;SDS011;12762;51.730;5.356;2023-04-08T08:28:31;23.23;;;14.33;;
24617;SDS011;12762;51.730;5.356;2023-04-08T08:30:58;24.30;;;15.03;;
24617;SDS011;12762;51.730;5.356;2023-04-08T08:33:26;26.73;;;15.67;;
24617;SDS011;12762;51.730;5.356;2023-04-08T08:35:53;21.83;;;14.03;;
24617;SDS011;12762;51.730;5.356;2023-04-08T08:38:21;24.27;;;13.47;;
24617;SDS011;12762;51.730;5.356;2023-04-08T08:40:52;25.03;;;14.10;;
24617;SDS011;12762;51.730;5.356;2023-04-08T08:43:25;24.07;;;13.57;;
24617;SDS011;12762;51.730;5.356;2023-04-08T08:45:54;20.53;;;13.37;;
24617;SDS011;12762;51.730;5.356;2023-04-08T08:48:21;28.97;;;14.73;;
24617;SDS011;12762;51.730;5.356;2023-04-08T08:50:50;23.97;;;14.33;;
24617;SDS011;12762;51.730;5.356;2023-04-08T08:53:16;23.27;;;13.63;;
24617;SDS011;12762;51.730;5.356;2023-04-08T08:55:44;23.77;;;14.27;;
24617;SDS011;12762;51.730;5.356;2023-04-08T08:58:31;22.47;;;14.07;;
24617;SDS011;12762;51.730;5.356;2023-04-08T09:00:58;23.70;;;15.57;;
24617;SDS011;12762;51.730;5.356;2023-04-08T09:03:26;23.33;;;14.87;;
24617;SDS011;12762;51.730;5.356;2023-04-08T09:05:58;23.17;;;14.77;;
24617;SDS011;12762;51.730;5.356;2023-04-08T09:11:11;23.87;;;15.60;;
24617;SDS011;12762;51.730;5.356;2023-04-08T09:13:47;23.43;;;15.07;;
24617;SDS011;12762;51.730;5.356;2023-04-08T09:16:15;23.77;;;15.70;;
24617;SDS011;12762;51.730;5.356;2023-04-08T09:18:44;23.60;;;15.20;;
24617;SDS011;12762;51.730;5.356;2023-04-08T09:21:14;22.47;;;15.53;;
24617;SDS011;12762;51.730;5.356;2023-04-08T09:23:50;24.37;;;16.03;;
24617;SDS011;12762;51.730;5.356;2023-04-08T09:26:22;24.27;;;15.63;;
24617;SDS011;12762;51.730;5.356;2023-04-08T09:31:54;25.50;;;15.73;;
24617;SDS011;12762;51.730;5.356;2023-04-08T09:34:26;24.43;;;16.30;;
24617;SDS011;12762;51.730;5.356;2023-04-08T09:36:55;25.40;;;16.33;;
24617;SDS011;12762;51.730;5.356;2023-04-08T09:39:22;26.47;;;16.13;;
24617;SDS011;12762;51.730;5.356;2023-04-08T09:41:50;24.57;;;16.00;;
24617;SDS011;12762;51.730;5.356;2023-04-08T09:44:18;24.10;;;16.27;;
24617;SDS011;12762;51.730;5.356;2023-04-08T09:49:24;24.67;;;16.87;;
24617;SDS011;12762;51.730;5.356;2023-04-08T09:54:59;24.10;;;16.23;;
24617;SDS011;12762;51.730;5.356;2023-04-08T10:00:09;24.83;;;17.07;;
24617;SDS011;12762;51.730;5.356;2023-04-08T10:05:40;26.67;;;17.30;;
24617;SDS011;12762;51.730;5.356;2023-04-08T10:08:08;24.30;;;17.03;;
24617;SDS011;12762;51.730;5.356;2023-04-08T10:10:37;23.93;;;16.73;;
24617;SDS011;12762;51.730;5.356;2023-04-08T10:13:06;24.43;;;16.40;;
24617;SDS011;12762;51.730;5.356;2023-04-08T10:15:33;24.90;;;16.57;;
24617;SDS011;12762;51.730;5.356;2023-04-08T10:23:07;26.63;;;18.07;;
24617;SDS011;12762;51.730;5.356;2023-04-08T10:25:48;26.27;;;17.97;;
24617;SDS011;12762;51.730;5.356;2023-04-08T10:33:19;29.83;;;20.13;;
24617;SDS011;12762;51.730;5.356;2023-04-08T10:36:00;27.93;;;19.63;;
24617;SDS011;12762;51.730;5.356;2023-04-08T10:38:37;24.43;;;17.60;;
24617;SDS011;12762;51.730;5.356;2023-04-08T10:41:04;24.40;;;18.27;;
24617;SDS011;12762;51.730;5.356;2023-04-08T10:43:34;26.27;;;18.10;;
24617;SDS011;12762;51.730;5.356;2023-04-08T10:46:02;24.83;;;17.70;;
24617;SDS011;12762;51.730;5.356;2023-04-08T10:48:30;24.20;;;17.70;;
24617;SDS011;12762;51.730;5.356;2023-04-08T10:50:57;21.57;;;16.27;;
24617;SDS011;12762;51.730;5.356;2023-04-08T10:53:28;23.23;;;17.23;;
24617;SDS011;12762;51.730;5.356;2023-04-08T10:56:12;22.90;;;17.03;;
24617;SDS011;12762;51.730;5.356;2023-04-08T10:58:50;23.07;;;16.57;;
24617;SDS011;12762;51.730;5.356;2023-04-08T11:01:24;21.43;;;16.23;;
24617;SDS011;12762;51.730;5.356;2023-04-08T11:03:51;22.53;;;17.20;;
24617;SDS011;12762;51.730;5.356;2023-04-08T11:06:19;23.57;;;16.87;;
24617;SDS011;12762;51.730;5.356;2023-04-08T11:08:46;23.67;;;17.23;;
24617;SDS011;12762;51.730;5.356;2023-04-08T11:11:12;20.83;;;15.97;;
24617;SDS011;12762;51.730;5.356;2023-04-08T11:13:41;18.90;;;15.27;;
24617;SDS011;12762;51.730;5.356;2023-04-08T11:16:19;22.37;;;17.17;;
24617;SDS011;12762;51.730;5.356;2023-04-08T11:18:49;20.13;;;15.37;;
24617;SDS011;12762;51.730;5.356;2023-04-08T11:21:16;22.47;;;15.80;;
24617;SDS011;12762;51.730;5.356;2023-04-08T11:23:43;19.07;;;14.83;;
24617;SDS011;12762;51.730;5.356;2023-04-08T11:26:10;21.50;;;15.40;;
24617;SDS011;12762;51.730;5.356;2023-04-08T11:28:37;19.43;;;15.23;;
24617;SDS011;12762;51.730;5.356;2023-04-08T11:31:04;18.50;;;14.27;;
24617;SDS011;12762;51.730;5.356;2023-04-08T11:33:34;19.37;;;14.73;;
24617;SDS011;12762;51.730;5.356;2023-04-08T11:36:01;18.23;;;13.83;;
24617;SDS011;12762;51.730;5.356;2023-04-08T11:38:33;19.13;;;14.87;;
24617;SDS011;12762;51.730;5.356;2023-04-08T11:41:05;18.80;;;13.13;;
24617;SDS011;12762;51.730;5.356;2023-04-08T11:43:32;28.20;;;16.63;;
24617;SDS011;12762;51.730;5.356;2023-04-08T11:46:11;17.57;;;14.50;;
24617;SDS011;12762;51.730;5.356;2023-04-08T11:48:38;20.53;;;14.07;;
24617;SDS011;12762;51.730;5.356;2023-04-08T11:51:05;16.40;;;12.97;;
24617;SDS011;12762;51.730;5.356;2023-04-08T11:53:34;18.20;;;14.53;;
24617;SDS011;12762;51.730;5.356;2023-04-08T11:56:18;17.47;;;14.13;;
24617;SDS011;12762;51.730;5.356;2023-04-08T11:58:47;19.03;;;13.83;;
24617;SDS011;12762;51.730;5.356;2023-04-08T12:01:15;16.73;;;13.43;;
24617;SDS011;12762;51.730;5.356;2023-04-08T12:04:03;16.57;;;12.87;;
24617;SDS011;12762;51.730;5.356;2023-04-08T12:06:29;17.33;;;13.97;;
24617;SDS011;12762;51.730;5.356;2023-04-08T12:08:56;18.07;;;13.80;;
24617;SDS011;12762;51.730;5.356;2023-04-08T12:11:24;16.37;;;12.40;;
24617;SDS011;12762;51.730;5.356;2023-04-08T12:13:51;14.97;;;12.53;;
24617;SDS011;12762;51.730;5.356;2023-04-08T12:16:19;19.80;;;13.10;;
24617;SDS011;12762;51.730;5.356;2023-04-08T12:18:46;18.80;;;14.07;;
24617;SDS011;12762;51.730;5.356;2023-04-08T12:21:13;17.67;;;13.60;;
24617;SDS011;12762;51.730;5.356;2023-04-08T12:23:40;17.63;;;13.43;;
24617;SDS011;12762;51.730;5.356;2023-04-08T12:26:07;17.30;;;14.20;;
24617;SDS011;12762;51.730;5.356;2023-04-08T12:28:34;16.13;;;12.67;;
24617;SDS011;12762;51.730;5.356;2023-04-08T12:31:02;15.90;;;12.13;;
24617;SDS011;12762;51.730;5.356;2023-04-08T12:33:29;16.63;;;12.80;;
24617;SDS011;12762;51.730;5.356;2023-04-08T12:35:56;16.27;;;13.20;;
24617;SDS011;12762;51.730;5.356;2023-04-08T12:38:24;15.27;;;13.17;;
24617;SDS011;12762;51.730;5.356;2023-04-08T12:40:52;17.37;;;14.07;;
24617;SDS011;12762;51.730;5.356;2023-04-08T12:43:19;18.40;;;13.47;;
24617;SDS011;12762;51.730;5.356;2023-04-08T12:45:47;16.33;;;13.00;;
24617;SDS011;12762;51.730;5.356;2023-04-08T12:48:14;17.17;;;13.60;;
24617;SDS011;12762;51.730;5.356;2023-04-08T12:50:41;18.07;;;13.80;;
24617;SDS011;12762;51.730;5.356;2023-04-08T12:53:07;16.80;;;13.37;;
24617;SDS011;12762;51.730;5.356;2023-04-08T12:55:34;16.43;;;12.57;;
24617;SDS011;12762;51.730;5.356;2023-04-08T12:58:01;15.60;;;12.47;;
24617;SDS011;12762;51.730;5.356;2023-04-08T13:00:28;16.40;;;12.10;;
24617;SDS011;12762;51.730;5.356;2023-04-08T13:02:55;15.77;;;11.93;;
24617;SDS011;12762;51.730;5.356;2023-04-08T13:05:22;14.23;;;11.10;;
24617;SDS011;12762;51.730;5.356;2023-04-08T13:08:08;14.60;;;11.40;;
24617;SDS011;12762;51.730;5.356;2023-04-08T13:10:35;16.87;;;12.13;;
24617;SDS011;12762;51.730;5.356;2023-04-08T13:13:01;16.27;;;11.80;;
24617;SDS011;12762;51.730;5.356;2023-04-08T13:15:28;15.57;;;11.50;;
24617;SDS011;12762;51.730;5.356;2023-04-08T13:17:55;14.87;;;10.27;;
24617;SDS011;12762;51.730;5.356;2023-04-08T13:20:22;14.13;;;10.50;;
24617;SDS011;12762;51.730;5.356;2023-04-08T13:22:51;13.27;;;10.23;;
24617;SDS011;12762;51.730;5.356;2023-04-08T13:25:18;16.40;;;10.13;;
24617;SDS011;12762;51.730;5.356;2023-04-08T13:27:45;13.43;;;9.83;;
24617;SDS011;12762;51.730;5.356;2023-04-08T13:30:18;13.73;;;9.17;;
24617;SDS011;12762;51.730;5.356;2023-04-08T13:32:46;15.43;;;9.47;;
24617;SDS011;12762;51.730;5.356;2023-04-08T13:35:15;12.17;;;9.00;;
24617;SDS011;12762;51.730;5.356;2023-04-08T13:37:42;12.77;;;8.43;;
24617;SDS011;12762;51.730;5.356;2023-04-08T13:40:09;13.60;;;7.80;;
24617;SDS011;12762;51.730;5.356;2023-04-08T13:42:37;11.63;;;7.83;;
24617;SDS011;12762;51.730;5.356;2023-04-08T13:45:04;13.77;;;8.30;;
24617;SDS011;12762;51.730;5.356;2023-04-08T13:47:31;13.93;;;8.37;;
24617;SDS011;12762;51.730;5.356;2023-04-08T13:50:01;13.87;;;8.27;;
24617;SDS011;12762;51.730;5.356;2023-04-08T13:52:27;12.90;;;8.17;;
24617;SDS011;12762;51.730;5.356;2023-04-08T13:54:54;11.27;;;7.70;;
24617;SDS011;12762;51.730;5.356;2023-04-08T13:57:21;12.23;;;7.63;;
24617;SDS011;12762;51.730;5.356;2023-04-08T13:59:48;13.17;;;8.07;;
24617;SDS011;12762;51.730;5.356;2023-04-08T14:02:15;13.93;;;8.23;;
24617;SDS011;12762;51.730;5.356;2023-04-08T14:04:42;13.50;;;8.00;;
24617;SDS011;12762;51.730;5.356;2023-04-08T14:07:11;14.20;;;7.87;;
24617;SDS011;12762;51.730;5.356;2023-04-08T14:09:42;13.23;;;8.00;;
24617;SDS011;12762;51.730;5.356;2023-04-08T14:12:17;16.73;;;7.77;;
24617;SDS011;12762;51.730;5.356;2023-04-08T14:14:44;13.73;;;7.67;;
24617;SDS011;12762;51.730;5.356;2023-04-08T14:17:11;13.33;;;7.23;;
24617;SDS011;12762;51.730;5.356;2023-04-08T14:19:38;12.10;;;7.17;;
24617;SDS011;12762;51.730;5.356;2023-04-08T14:22:05;11.73;;;6.93;;
24617;SDS011;12762;51.730;5.356;2023-04-08T14:24:38;11.67;;;6.83;;
24617;SDS011;12762;51.730;5.356;2023-04-08T14:27:05;12.47;;;6.77;;
24617;SDS011;12762;51.730;5.356;2023-04-08T14:29:31;11.00;;;7.00;;
24617;SDS011;12762;51.730;5.356;2023-04-08T14:31:58;15.10;;;7.10;;
24617;SDS011;12762;51.730;5.356;2023-04-08T14:34:25;13.60;;;7.53;;
24617;SDS011;12762;51.730;5.356;2023-04-08T14:36:52;10.20;;;7.00;;
24617;SDS011;12762;51.730;5.356;2023-04-08T14:39:19;12.53;;;6.77;;
24617;SDS011;12762;51.730;5.356;2023-04-08T14:41:46;12.13;;;5.60;;
24617;SDS011;12762;51.730;5.356;2023-04-08T14:44:13;12.30;;;6.33;;
24617;SDS011;12762;51.730;5.356;2023-04-08T14:46:40;12.67;;;6.37;;
24617;SDS011;12762;51.730;5.356;2023-04-08T14:49:07;13.30;;;6.47;;
24617;SDS011;12762;51.730;5.356;2023-04-08T14:51:34;11.20;;;6.50;;
24617;SDS011;12762;51.730;5.356;2023-04-08T14:54:03;13.10;;;6.70;;
24617;SDS011;12762;51.730;5.356;2023-04-08T14:56:29;9.90;;;6.37;;
24617;SDS011;12762;51.730;5.356;2023-04-08T14:58:56;11.03;;;6.90;;
24617;SDS011;12762;51.730;5.356;2023-04-08T15:01:23;13.17;;;7.10;;